»·PEaware :: N62GD KTOA-KVNY

N62GD :: KTOA-KVNY

FLIGHT INFORMATION

Flight Status: Arrived
Operator: Privately registered:
United States
More flights under this callsign
Pilot: Andrew S. (20703)
Aircraft: PILATUS PC-12 EAGLE
(PC12)
More flights by this aircraft type
Origin: KTOA Zamperini
United States
Destination: KVNY Van Nuys
United States
More flights between these airports :: More routes between these airports
Route: LAX170 LIMBO V64 SMO125 SMO SMO317 CANOG
File this flight plan on PilotEdge
Remarks:
Altitude:
(Current/Filed)
5,000ft
Speed:
(Current/Filed)
225kts
Departed: 23-Dec-18 08:56 PM
Arrived: 23-Dec-18 09:43 PM
Distance/Time
Traveled:
25nm/0:47
Distance/Time
To Go:
Arrived

Flight Plot

Page will automatically refresh every two minutes.

Flight plan parsing failed; only flown route is shown


Map Options




Map Legend


Flown Route
Filed Route
Departure Airport
Arrival Airport
Navaid (VOR, NDB)
Fix

Horizontal Profiles

Position Reports

Time Latitude Longitude Heading Altitude Ground
Speed
23-Dec-18 20:40 33.803347 -118.344051 40 107ft 0kts
23-Dec-18 20:41 33.803347 -118.344051 40 107ft 0kts
23-Dec-18 20:42 33.803347 -118.344051 40 107ft 0kts
23-Dec-18 20:43 33.803347 -118.344051 40 107ft 0kts
23-Dec-18 20:44 33.803347 -118.344051 40 107ft 0kts
23-Dec-18 20:45 33.803347 -118.344051 40 107ft 0kts
23-Dec-18 20:46 33.803347 -118.344051 40 107ft 0kts
23-Dec-18 20:47 33.803347 -118.344051 40 107ft 0kts
23-Dec-18 20:48 33.803347 -118.344051 40 107ft 0kts
23-Dec-18 20:49 33.803347 -118.344051 40 107ft 0kts
23-Dec-18 20:50 33.803077 -118.343321 122 107ft 15kts
23-Dec-18 20:51 33.801684 -118.340019 129 107ft 23kts
23-Dec-18 20:52 33.798155 -118.334223 41 107ft 10kts
23-Dec-18 20:53 33.798928 -118.333469 42 107ft 4kts
23-Dec-18 20:54 33.799118 -118.333294 37 107ft 1kts
23-Dec-18 20:55 33.808420 -118.346225 306 528ft 123kts
23-Dec-18 20:56 33.835051 -118.386793 307 2708ft 170kts
23-Dec-18 20:57 33.843800 -118.446859 219 3181ft 227kts
23-Dec-18 20:58 33.784517 -118.460290 175 4350ft 219kts
23-Dec-18 20:59 33.758679 -118.410767 70 5005ft 239kts
23-Dec-18 21:00 33.767103 -118.328402 84 4998ft 252kts
23-Dec-18 21:01 33.797032 -118.266955 349 5008ft 237kts
23-Dec-18 21:02 33.845983 -118.315646 327 4995ft 235kts
23-Dec-18 21:03 33.898750 -118.356390 325 4991ft 220kts
23-Dec-18 21:04 33.947657 -118.399318 335 4989ft 216kts
23-Dec-18 21:05 34.000033 -118.417953 318 4989ft 216kts
23-Dec-18 21:06 34.041407 -118.470640 315 4989ft 216kts
23-Dec-18 21:07 34.085614 -118.519520 324 4990ft 216kts
23-Dec-18 21:08 34.137154 -118.554376 343 4988ft 216kts
23-Dec-18 21:09 34.190522 -118.585444 324 4993ft 216kts
23-Dec-18 21:11 34.248178 -118.603103 351 4994ft 216kts
23-Dec-18 21:12 34.307631 -118.613175 351 4994ft 216kts
23-Dec-18 21:13 34.366925 -118.623199 351 4995ft 216kts
23-Dec-18 21:14 34.426403 -118.633242 351 4998ft 216kts
23-Dec-18 21:15 34.485830 -118.643252 352 5008ft 215kts
23-Dec-18 21:16 34.529040 -118.597056 51 5016ft 220kts
23-Dec-18 21:17 34.565349 -118.537309 51 5027ft 220kts
23-Dec-18 21:18 34.570466 -118.474081 155 5034ft 227kts
23-Dec-18 21:19 34.509261 -118.481821 191 5024ft 226kts
23-Dec-18 21:20 34.451341 -118.500128 196 4867ft 204kts
23-Dec-18 21:21 34.397080 -118.507968 176 4640ft 184kts
23-Dec-18 21:22 34.347214 -118.503272 175 4129ft 181kts
23-Dec-18 21:23 34.301449 -118.498955 175 3783ft 136kts
23-Dec-18 21:24 34.260389 -118.495108 175 2497ft 158kts
23-Dec-18 21:25 34.228079 -118.492109 175 1359ft 85kts
23-Dec-18 21:26 34.187542 -118.489438 180 1587ft 211kts
23-Dec-18 21:27 34.125281 -118.474765 164 1776ft 234kts
23-Dec-18 21:28 34.071103 -118.457549 176 3287ft 161kts
23-Dec-18 21:29 34.028081 -118.456406 181 4602ft 176kts
23-Dec-18 21:29 34.013073 -118.501963 291 4607ft 237kts
23-Dec-18 21:31 34.027123 -118.596196 279 4600ft 245kts
23-Dec-18 21:32 34.036655 -118.675411 279 4603ft 241kts
23-Dec-18 21:32 34.051505 -118.738826 308 4607ft 237kts
23-Dec-18 21:34 34.105142 -118.799512 4 4606ft 234kts
23-Dec-18 21:34 34.148313 -118.760289 41 4607ft 238kts
23-Dec-18 21:35 34.195390 -118.706490 46 4594ft 201kts
23-Dec-18 21:36 34.201279 -118.648498 88 4069ft 171kts
23-Dec-18 21:37 34.200630 -118.596304 89 3453ft 147kts
23-Dec-18 21:38 34.209354 -118.551409 49 2538ft 140kts
23-Dec-18 21:39 34.234718 -118.521183 39 1820ft 88kts
23-Dec-18 21:40 34.247574 -118.488105 101 1785ft 118kts
23-Dec-18 21:41 34.225545 -118.488345 199 1160ft 96kts
23-Dec-18 21:42 34.208359 -118.489005 157 806ft 13kts
23-Dec-18 21:43 34.208243 -118.488051 149 806ft 0kts

Navigation Log

Ident Type
Flight plan parsing failed, navigation log unavailable